sensor_id;sensor_type;location;lat;lon;timestamp;pressure;altitude;pressure_sealevel;temperature;humidity
70902;BME280;58548;47.210;8.618;2023-04-22T00:01:48;93461.38;;;16.68;37.33
70902;BME280;58548;47.210;8.618;2023-04-22T00:04:16;93531.06;;;17.11;37.66
70902;BME280;58548;47.210;8.618;2023-04-22T00:06:42;93536.06;;;17.08;37.89
70902;BME280;58548;47.210;8.618;2023-04-22T00:09:13;93544.44;;;17.05;38.25
70902;BME280;58548;47.210;8.618;2023-04-22T00:11:39;93432.59;;;16.27;38.06
70902;BME280;58548;47.210;8.618;2023-04-22T00:14:05;93435.53;;;16.31;38.21
70902;BME280;58548;47.210;8.618;2023-04-22T00:16:33;93527.91;;;16.92;38.33
70902;BME280;58548;47.210;8.618;2023-04-22T00:19:01;93438.91;;;16.26;38.19
70902;BME280;58548;47.210;8.618;2023-04-22T00:21:33;93415.69;;;16.06;38.19
70902;BME280;58548;47.210;8.618;2023-04-22T00:24:01;93521.78;;;16.69;37.82
70902;BME280;58548;47.210;8.618;2023-04-22T00:26:27;93440.19;;;16.06;37.73
70902;BME280;58548;47.210;8.618;2023-04-22T00:28:53;93431.50;;;15.89;38.00
70902;BME280;58548;47.210;8.618;2023-04-22T00:31:21;93416.03;;;15.80;38.33
70902;BME280;58548;47.210;8.618;2023-04-22T00:33:47;93510.75;;;16.38;38.14
70902;BME280;58548;47.210;8.618;2023-04-22T00:36:13;93411.63;;;15.69;38.27
70902;BME280;58548;47.210;8.618;2023-04-22T00:38:47;93502.63;;;16.23;38.08
70902;BME280;58548;47.210;8.618;2023-04-22T00:41:13;93510.50;;;16.23;38.08
70902;BME280;58548;47.210;8.618;2023-04-22T00:43:39;93487.97;;;15.98;38.38
70902;BME280;58548;47.210;8.618;2023-04-22T00:46:05;93428.59;;;15.44;38.31
70902;BME280;58548;47.210;8.618;2023-04-22T00:48:31;93521.50;;;16.03;38.67
70902;BME280;58548;47.210;8.618;2023-04-22T00:50:57;93519.47;;;15.93;38.64
70902;BME280;58548;47.210;8.618;2023-04-22T00:53:28;93421.56;;;15.21;38.29
70902;BME280;58548;47.210;8.618;2023-04-22T00:55:54;93445.03;;;15.22;38.84
70902;BME280;58548;47.210;8.618;2023-04-22T00:58:25;93475.38;;;15.42;38.42
70902;BME280;58548;47.210;8.618;2023-04-22T01:00:52;93446.41;;;15.13;38.55
70902;BME280;58548;47.210;8.618;2023-04-22T01:03:19;93526.00;;;15.61;38.48
70902;BME280;58548;47.210;8.618;2023-04-22T01:05:48;93531.72;;;15.58;38.95
70902;BME280;58548;47.210;8.618;2023-04-22T01:08:18;93522.00;;;15.59;39.09
70902;BME280;58548;47.210;8.618;2023-04-22T01:10:46;93377.72;;;14.69;38.89
70902;BME280;58548;47.210;8.618;2023-04-22T01:13:12;93423.03;;;15.00;39.17
70902;BME280;58548;47.210;8.618;2023-04-22T01:15:37;93500.53;;;15.50;39.14
70902;BME280;58548;47.210;8.618;2023-04-22T01:18:04;93505.09;;;15.55;39.05
70902;BME280;58548;47.210;8.618;2023-04-22T01:20:30;93483.28;;;15.42;39.09
70902;BME280;58548;47.210;8.618;2023-04-22T01:23:01;93453.59;;;15.18;38.99
70902;BME280;58548;47.210;8.618;2023-04-22T01:25:31;93518.13;;;15.49;39.01
70902;BME280;58548;47.210;8.618;2023-04-22T01:27:58;93468.16;;;15.08;38.94
70902;BME280;58548;47.210;8.618;2023-04-22T01:30:23;93508.25;;;15.28;39.00
70902;BME280;58548;47.210;8.618;2023-04-22T01:32:49;93515.66;;;15.31;38.80
70902;BME280;58548;47.210;8.618;2023-04-22T01:35:15;93532.59;;;15.35;38.87
70902;BME280;58548;47.210;8.618;2023-04-22T01:37:44;93518.53;;;15.29;38.93
70902;BME280;58548;47.210;8.618;2023-04-22T01:40:15;93511.91;;;15.27;38.69
70902;BME280;58548;47.210;8.618;2023-04-22T01:42:45;93425.25;;;14.55;38.78
70902;BME280;58548;47.210;8.618;2023-04-22T01:45:11;93437.00;;;14.65;38.52
70902;BME280;58548;47.210;8.618;2023-04-22T01:47:42;93417.72;;;14.47;38.60
70902;BME280;58548;47.210;8.618;2023-04-22T01:50:12;93527.25;;;15.06;38.74
70902;BME280;58548;47.210;8.618;2023-04-22T01:52:40;93408.34;;;14.27;38.70
70902;BME280;58548;47.210;8.618;2023-04-22T01:55:09;93521.81;;;14.96;38.80
70902;BME280;58548;47.210;8.618;2023-04-22T01:57:36;93524.88;;;14.92;39.08
70902;BME280;58548;47.210;8.618;2023-04-22T02:00:02;93435.75;;;14.31;38.77
70902;BME280;58548;47.210;8.618;2023-04-22T02:02:31;93536.31;;;14.86;38.59
70902;BME280;58548;47.210;8.618;2023-04-22T02:04:57;93505.88;;;14.67;38.72
70902;BME280;58548;47.210;8.618;2023-04-22T02:07:25;93528.91;;;14.71;38.57
70902;BME280;58548;47.210;8.618;2023-04-22T02:09:52;93427.75;;;14.02;38.84
70902;BME280;58548;47.210;8.618;2023-04-22T02:12:20;93436.44;;;14.03;39.31
70902;BME280;58548;47.210;8.618;2023-04-22T02:14:49;93441.81;;;13.96;39.00
70902;BME280;58548;47.210;8.618;2023-04-22T02:17:15;93501.09;;;14.40;39.67
70902;BME280;58548;47.210;8.618;2023-04-22T02:19:42;93535.25;;;14.63;39.10
70902;BME280;58548;47.210;8.618;2023-04-22T02:22:08;93368.69;;;13.46;39.19
70902;BME280;58548;47.210;8.618;2023-04-22T02:24:34;93525.53;;;14.40;39.23
70902;BME280;58548;47.210;8.618;2023-04-22T02:27:03;93483.00;;;14.08;39.18
70902;BME280;58548;47.210;8.618;2023-04-22T02:29:28;93528.94;;;14.41;39.22
70902;BME280;58548;47.210;8.618;2023-04-22T02:31:58;93453.16;;;13.78;39.17
70902;BME280;58548;47.210;8.618;2023-04-22T02:34:24;93535.56;;;14.31;39.30
70902;BME280;58548;47.210;8.618;2023-04-22T02:36:55;93532.81;;;14.26;39.16
70902;BME280;58548;47.210;8.618;2023-04-22T02:39:20;93436.47;;;13.61;38.82
70902;BME280;58548;47.210;8.618;2023-04-22T02:41:46;93494.16;;;13.91;39.09
70902;BME280;58548;47.210;8.618;2023-04-22T02:44:12;93535.41;;;14.14;38.94
70902;BME280;58548;47.210;8.618;2023-04-22T02:46:38;93545.22;;;14.07;38.86
70902;BME280;58548;47.210;8.618;2023-04-22T02:49:06;93532.56;;;14.04;39.14
70902;BME280;58548;47.210;8.618;2023-04-22T02:51:36;93512.84;;;13.83;39.41
70902;BME280;58548;47.210;8.618;2023-04-22T02:54:07;93455.22;;;13.46;39.49
70902;BME280;58548;47.210;8.618;2023-04-22T02:56:35;93528.06;;;13.93;39.38
70902;BME280;58548;47.210;8.618;2023-04-22T02:59:01;93525.38;;;13.81;39.22
70902;BME280;58548;47.210;8.618;2023-04-22T03:01:29;93545.41;;;13.94;39.09
70902;BME280;58548;47.210;8.618;2023-04-22T03:03:59;93548.72;;;13.89;39.46
70902;BME280;58548;47.210;8.618;2023-04-22T03:06:24;93536.69;;;13.81;39.30
70902;BME280;58548;47.210;8.618;2023-04-22T03:08:53;93449.50;;;13.18;38.95
70902;BME280;58548;47.210;8.618;2023-04-22T03:11:19;93544.56;;;13.81;39.01
70902;BME280;58548;47.210;8.618;2023-04-22T03:13:47;93430.81;;;12.96;39.05
70902;BME280;58548;47.210;8.618;2023-04-22T03:16:16;93547.00;;;13.64;39.13
70902;BME280;58548;47.210;8.618;2023-04-22T03:18:44;93550.06;;;13.61;39.31
70902;BME280;58548;47.210;8.618;2023-04-22T03:21:10;93548.03;;;13.63;39.39
70902;BME280;58548;47.210;8.618;2023-04-22T03:23:36;93525.91;;;13.40;39.69
70902;BME280;58548;47.210;8.618;2023-04-22T03:26:02;93553.13;;;13.58;39.65
70902;BME280;58548;47.210;8.618;2023-04-22T03:28:28;93552.00;;;13.54;39.55
70902;BME280;58548;47.210;8.618;2023-04-22T03:30:54;93460.31;;;12.91;40.04
70902;BME280;58548;47.210;8.618;2023-04-22T03:33:19;93447.88;;;12.87;39.41
70902;BME280;58548;47.210;8.618;2023-04-22T03:35:48;93556.84;;;13.50;39.88
70902;BME280;58548;47.210;8.618;2023-04-22T03:38:14;93557.28;;;13.47;40.19
70902;BME280;58548;47.210;8.618;2023-04-22T03:40:46;93539.66;;;13.36;40.04
70902;BME280;58548;47.210;8.618;2023-04-22T03:43:11;93524.44;;;13.26;40.23
70902;BME280;58548;47.210;8.618;2023-04-22T03:45:40;93457.97;;;12.83;40.34
70902;BME280;58548;47.210;8.618;2023-04-22T03:48:08;93460.81;;;12.81;40.39
70902;BME280;58548;47.210;8.618;2023-04-22T03:50:34;93553.78;;;13.35;40.29
70902;BME280;58548;47.210;8.618;2023-04-22T03:53:00;93562.19;;;13.44;40.45
70902;BME280;58548;47.210;8.618;2023-04-22T03:55:28;93482.63;;;12.94;40.09
70902;BME280;58548;47.210;8.618;2023-04-22T03:57:54;93539.75;;;13.29;40.65
70902;BME280;58548;47.210;8.618;2023-04-22T04:00:23;93469.63;;;12.87;40.20
70902;BME280;58548;47.210;8.618;2023-04-22T04:02:51;93569.78;;;13.52;40.18
70902;BME280;58548;47.210;8.618;2023-04-22T04:05:19;93471.44;;;12.87;40.25
70902;BME280;58548;47.210;8.618;2023-04-22T04:07:45;93477.28;;;12.89;40.60
70902;BME280;58548;47.210;8.618;2023-04-22T04:10:14;93577.31;;;13.60;40.93
70902;BME280;58548;47.210;8.618;2023-04-22T04:12:39;93576.38;;;13.73;40.95
70902;BME280;58548;47.210;8.618;2023-04-22T04:15:06;93557.06;;;13.67;41.01
70902;BME280;58548;47.210;8.618;2023-04-22T04:17:37;93477.25;;;13.26;41.01
70902;BME280;58548;47.210;8.618;2023-04-22T04:20:05;93580.66;;;13.86;41.44
70902;BME280;58548;47.210;8.618;2023-04-22T04:22:32;93400.84;;;12.73;41.47
70902;BME280;58548;47.210;8.618;2023-04-22T04:25:00;93472.78;;;13.26;41.66
70902;BME280;58548;47.210;8.618;2023-04-22T04:27:27;93571.56;;;14.00;41.50
70902;BME280;58548;47.210;8.618;2023-04-22T04:29:55;93584.66;;;14.19;42.03
70902;BME280;58548;47.210;8.618;2023-04-22T04:32:21;93578.50;;;14.25;41.80
70902;BME280;58548;47.210;8.618;2023-04-22T04:34:50;93588.69;;;14.33;41.61
70902;BME280;58548;47.210;8.618;2023-04-22T04:37:17;93488.41;;;13.70;41.61
70902;BME280;58548;47.210;8.618;2023-04-22T04:39:45;93590.53;;;14.45;41.65
70902;BME280;58548;47.210;8.618;2023-04-22T04:42:13;93532.13;;;14.19;41.90
70902;BME280;58548;47.210;8.618;2023-04-22T04:44:42;93586.56;;;14.54;41.70
70902;BME280;58548;47.210;8.618;2023-04-22T04:47:08;93558.41;;;14.43;42.01
70902;BME280;58548;47.210;8.618;2023-04-22T04:49:36;93510.31;;;14.18;42.12
70902;BME280;58548;47.210;8.618;2023-04-22T04:52:04;93464.72;;;13.89;41.54
70902;BME280;58548;47.210;8.618;2023-04-22T04:54:34;93589.13;;;14.73;41.47
70902;BME280;58548;47.210;8.618;2023-04-22T04:57:00;93496.03;;;14.14;41.49
70902;BME280;58548;47.210;8.618;2023-04-22T04:59:26;93496.84;;;14.15;41.58
70902;BME280;58548;47.210;8.618;2023-04-22T05:01:55;93602.38;;;14.78;41.62
70902;BME280;58548;47.210;8.618;2023-04-22T05:04:23;93610.50;;;14.88;41.48
70902;BME280;58548;47.210;8.618;2023-04-22T05:06:49;93597.34;;;14.88;41.33
70902;BME280;58548;47.210;8.618;2023-04-22T05:09:17;93600.44;;;14.97;40.74
70902;BME280;58548;47.210;8.618;2023-04-22T05:11:43;93594.38;;;14.97;40.55
70902;BME280;58548;47.210;8.618;2023-04-22T05:14:09;93576.44;;;14.82;40.40
70902;BME280;58548;47.210;8.618;2023-04-22T05:16:35;93596.09;;;14.91;40.71
70902;BME280;58548;47.210;8.618;2023-04-22T05:19:01;93609.72;;;15.00;40.28
70902;BME280;58548;47.210;8.618;2023-04-22T05:21:27;93525.22;;;14.48;40.11
70902;BME280;58548;47.210;8.618;2023-04-22T05:23:52;93609.72;;;15.00;40.02
70902;BME280;58548;47.210;8.618;2023-04-22T05:26:21;93582.50;;;14.82;39.61
70902;BME280;58548;47.210;8.618;2023-04-22T05:28:47;93616.13;;;15.04;39.83
70902;BME280;58548;47.210;8.618;2023-04-22T05:31:17;93545.31;;;14.55;39.45
70902;BME280;58548;47.210;8.618;2023-04-22T05:33:45;93511.94;;;14.31;39.61
70902;BME280;58548;47.210;8.618;2023-04-22T05:36:11;93519.81;;;14.31;39.51
70902;BME280;58548;47.210;8.618;2023-04-22T05:38:37;93604.91;;;14.97;39.41
70902;BME280;58548;47.210;8.618;2023-04-22T05:41:07;93506.81;;;14.37;39.69
70902;BME280;58548;47.210;8.618;2023-04-22T05:43:33;93529.78;;;14.53;39.88
70902;BME280;58548;47.210;8.618;2023-04-22T05:46:04;93613.59;;;15.09;39.97
70902;BME280;58548;47.210;8.618;2023-04-22T05:48:30;93544.44;;;14.73;40.15
70902;BME280;58548;47.210;8.618;2023-04-22T05:50:56;93590.94;;;15.08;40.26
70902;BME280;58548;47.210;8.618;2023-04-22T05:53:22;93589.34;;;15.19;40.25
70902;BME280;58548;47.210;8.618;2023-04-22T05:55:50;93615.75;;;15.48;40.53
70902;BME280;58548;47.210;8.618;2023-04-22T05:58:16;93619.94;;;15.61;40.22
70902;BME280;58548;47.210;8.618;2023-04-22T06:00:41;93596.97;;;15.56;40.33
70902;BME280;58548;47.210;8.618;2023-04-22T06:03:11;93528.25;;;15.29;40.91
70902;BME280;58548;47.210;8.618;2023-04-22T06:05:36;93626.38;;;16.06;40.68
70902;BME280;58548;47.210;8.618;2023-04-22T06:08:02;93631.00;;;16.27;40.56
70902;BME280;58548;47.210;8.618;2023-04-22T06:10:31;93519.50;;;15.81;41.01
70902;BME280;58548;47.210;8.618;2023-04-22T06:12:59;93631.06;;;16.79;41.19
70902;BME280;58548;47.210;8.618;2023-04-22T06:15:28;93600.16;;;16.91;40.33
70902;BME280;58548;47.210;8.618;2023-04-22T06:17:53;93555.53;;;16.89;40.52
70902;BME280;58548;47.210;8.618;2023-04-22T06:20:22;93619.44;;;17.48;40.03
70902;BME280;58548;47.210;8.618;2023-04-22T06:22:48;93400.34;;;16.20;40.18
70902;BME280;58548;47.210;8.618;2023-04-22T06:25:16;93612.84;;;17.90;40.32
70902;BME280;58548;47.210;8.618;2023-04-22T06:27:44;93603.75;;;18.03;39.27
70902;BME280;58548;47.210;8.618;2023-04-22T06:30:12;93623.72;;;18.43;39.04
70902;BME280;58548;47.210;8.618;2023-04-22T06:32:41;93528.13;;;17.97;38.93
70902;BME280;58548;47.210;8.618;2023-04-22T06:35:10;93511.94;;;18.15;38.54
70902;BME280;58548;47.210;8.618;2023-04-22T06:37:41;93625.66;;;19.13;37.98
70902;BME280;58548;47.210;8.618;2023-04-22T06:40:07;93589.91;;;19.10;37.46
70902;BME280;58548;47.210;8.618;2023-04-22T06:42:36;93614.47;;;19.43;37.68
70902;BME280;58548;47.210;8.618;2023-04-22T06:45:05;93567.81;;;19.37;37.40
70902;BME280;58548;47.210;8.618;2023-04-22T06:47:42;93607.88;;;20.04;37.17
70902;BME280;58548;47.210;8.618;2023-04-22T06:50:09;93621.50;;;20.49;37.35
70902;BME280;58548;47.210;8.618;2023-04-22T06:52:38;93640.41;;;21.05;36.61
70902;BME280;58548;47.210;8.618;2023-04-22T06:55:04;93602.13;;;21.42;36.35
70902;BME280;58548;47.210;8.618;2023-04-22T06:57:30;93635.91;;;22.23;35.75
70902;BME280;58548;47.210;8.618;2023-04-22T06:59:58;93604.81;;;22.68;34.64
70902;BME280;58548;47.210;8.618;2023-04-22T07:02:24;93490.28;;;22.49;34.02
70902;BME280;58548;47.210;8.618;2023-04-22T07:04:50;93638.25;;;24.03;32.48
70902;BME280;58548;47.210;8.618;2023-04-22T07:07:16;93549.91;;;23.85;32.62
70902;BME280;58548;47.210;8.618;2023-04-22T07:09:42;93653.13;;;24.91;31.45
70902;BME280;58548;47.210;8.618;2023-04-22T07:12:10;93653.28;;;25.33;30.69
70902;BME280;58548;47.210;8.618;2023-04-22T07:14:45;93651.81;;;25.73;29.44
70902;BME280;58548;47.210;8.618;2023-04-22T07:17:11;93556.53;;;25.50;29.39
70902;BME280;58548;47.210;8.618;2023-04-22T07:19:42;93580.59;;;26.06;27.64
70902;BME280;58548;47.210;8.618;2023-04-22T07:22:08;93649.38;;;26.84;26.94
70902;BME280;58548;47.210;8.618;2023-04-22T07:24:34;93557.69;;;26.50;26.90
70902;BME280;58548;47.210;8.618;2023-04-22T07:27:00;93652.88;;;27.30;26.75
70902;BME280;58548;47.210;8.618;2023-04-22T07:29:29;93639.59;;;27.47;26.70
70902;BME280;58548;47.210;8.618;2023-04-22T07:31:59;93638.72;;;27.61;25.60
70902;BME280;58548;47.210;8.618;2023-04-22T07:34:27;93583.38;;;27.42;25.20
70902;BME280;58548;47.210;8.618;2023-04-22T07:36:58;93654.81;;;28.01;24.65
70902;BME280;58548;47.210;8.618;2023-04-22T07:39:25;93650.00;;;28.21;24.67
70902;BME280;58548;47.210;8.618;2023-04-22T07:41:51;93582.34;;;28.01;24.71
70902;BME280;58548;47.210;8.618;2023-04-22T07:44:20;93660.09;;;28.82;24.20
70902;BME280;58548;47.210;8.618;2023-04-22T07:46:48;93659.94;;;29.13;23.85
70902;BME280;58548;47.210;8.618;2023-04-22T07:49:15;93655.22;;;29.37;23.66
70902;BME280;58548;47.210;8.618;2023-04-22T07:51:44;93582.47;;;29.07;22.94
70902;BME280;58548;47.210;8.618;2023-04-22T07:54:10;93570.25;;;29.27;21.86
70902;BME280;58548;47.210;8.618;2023-04-22T07:56:36;93587.75;;;29.59;21.71
70902;BME280;58548;47.210;8.618;2023-04-22T07:59:02;93615.63;;;29.93;21.73
70902;BME280;58548;47.210;8.618;2023-04-22T08:01:31;93624.31;;;30.08;21.60
70902;BME280;58548;47.210;8.618;2023-04-22T08:03:59;93659.84;;;30.52;21.44
70902;BME280;58548;47.210;8.618;2023-04-22T08:06:25;93644.47;;;30.62;21.48
70902;BME280;58548;47.210;8.618;2023-04-22T08:08:55;93608.50;;;30.58;21.07
70902;BME280;58548;47.210;8.618;2023-04-22T08:11:20;93666.91;;;31.17;20.54
70902;BME280;58548;47.210;8.618;2023-04-22T08:13:48;93669.78;;;31.33;19.96
70902;BME280;58548;47.210;8.618;2023-04-22T08:16:17;93582.84;;;30.94;19.91
70902;BME280;58548;47.210;8.618;2023-04-22T08:18:43;93667.13;;;31.79;19.70
70902;BME280;58548;47.210;8.618;2023-04-22T08:21:11;93668.28;;;32.03;19.20
70902;BME280;58548;47.210;8.618;2023-04-22T08:23:37;93588.03;;;31.66;18.82
70902;BME280;58548;47.210;8.618;2023-04-22T08:26:06;93677.66;;;32.43;18.39
70902;BME280;58548;47.210;8.618;2023-04-22T08:28:36;93592.13;;;31.97;17.86
70902;BME280;58548;47.210;8.618;2023-04-22T08:31:02;93662.56;;;32.67;18.03
70902;BME280;58548;47.210;8.618;2023-04-22T08:33:28;93666.28;;;32.87;18.06
70902;BME280;58548;47.210;8.618;2023-04-22T08:35:54;93650.22;;;33.06;18.02
70902;BME280;58548;47.210;8.618;2023-04-22T08:38:25;93597.84;;;32.99;16.91
70902;BME280;58548;47.210;8.618;2023-04-22T08:40:55;93590.03;;;33.10;17.16
70902;BME280;58548;47.210;8.618;2023-04-22T08:43:21;93648.31;;;33.64;16.93
70902;BME280;58548;47.210;8.618;2023-04-22T08:45:48;93656.63;;;33.87;16.08
70902;BME280;58548;47.210;8.618;2023-04-22T08:48:14;93664.97;;;34.10;16.21
70902;BME280;58548;47.210;8.618;2023-04-22T08:50:41;93601.31;;;33.72;16.50
70902;BME280;58548;47.210;8.618;2023-04-22T08:53:09;93606.28;;;33.86;16.51
70902;BME280;58548;47.210;8.618;2023-04-22T08:55:35;93678.66;;;34.34;15.87
70902;BME280;58548;47.210;8.618;2023-04-22T08:58:06;93674.13;;;34.38;15.85
70902;BME280;58548;47.210;8.618;2023-04-22T09:00:32;93669.69;;;34.46;15.18
70902;BME280;58548;47.210;8.618;2023-04-22T09:03:01;93662.84;;;34.52;15.59
70902;BME280;58548;47.210;8.618;2023-04-22T09:05:35;93661.34;;;34.54;15.04
70902;BME280;58548;47.210;8.618;2023-04-22T09:08:04;93589.00;;;34.07;14.86
70902;BME280;58548;47.210;8.618;2023-04-22T09:10:35;93585.09;;;34.04;15.07
70902;BME280;58548;47.210;8.618;2023-04-22T09:13:05;93625.16;;;34.31;14.99
70902;BME280;58548;47.210;8.618;2023-04-22T09:15:33;93566.56;;;34.06;15.22
70902;BME280;58548;47.210;8.618;2023-04-22T09:18:01;93561.47;;;34.21;15.16
70902;BME280;58548;47.210;8.618;2023-04-22T09:20:30;93542.78;;;34.35;15.26
70902;BME280;58548;47.210;8.618;2023-04-22T09:23:01;93629.28;;;35.12;15.22
70902;BME280;58548;47.210;8.618;2023-04-22T09:25:33;93616.41;;;35.28;14.76
70902;BME280;58548;47.210;8.618;2023-04-22T09:28:01;93556.13;;;35.19;14.43
70902;BME280;58548;47.210;8.618;2023-04-22T09:30:30;93620.97;;;35.87;14.38
70902;BME280;58548;47.210;8.618;2023-04-22T09:32:59;93627.19;;;36.11;14.36
70902;BME280;58548;47.210;8.618;2023-04-22T09:35:32;93627.53;;;36.32;13.55
70902;BME280;58548;47.210;8.618;2023-04-22T09:38:00;93542.41;;;36.01;13.45
70902;BME280;58548;47.210;8.618;2023-04-22T09:40:30;93606.19;;;36.61;13.39
70902;BME280;58548;47.210;8.618;2023-04-22T09:42:59;93579.97;;;36.76;12.68
70902;BME280;58548;47.210;8.618;2023-04-22T09:45:37;93545.75;;;36.75;11.56
70902;BME280;58548;47.210;8.618;2023-04-22T09:48:13;93612.28;;;37.42;12.22
70902;BME280;58548;47.210;8.618;2023-04-22T09:50:47;93617.59;;;37.69;11.67
70902;BME280;58548;47.210;8.618;2023-04-22T09:53:15;93541.00;;;37.37;11.55
70902;BME280;58548;47.210;8.618;2023-04-22T09:55:47;93605.41;;;37.97;11.86
70902;BME280;58548;47.210;8.618;2023-04-22T09:58:18;93541.38;;;37.77;11.64
70902;BME280;58548;47.210;8.618;2023-04-22T10:00:53;93608.78;;;38.36;10.64
70902;BME280;58548;47.210;8.618;2023-04-22T10:03:21;93604.25;;;38.51;10.84
70902;BME280;58548;47.210;8.618;2023-04-22T10:05:51;93610.63;;;38.80;9.82
70902;BME280;58548;47.210;8.618;2023-04-22T10:08:17;93613.84;;;38.93;10.27
70902;BME280;58548;47.210;8.618;2023-04-22T10:10:43;93619.00;;;39.13;9.86
70902;BME280;58548;47.210;8.618;2023-04-22T10:13:09;93612.47;;;39.32;10.17
70902;BME280;58548;47.210;8.618;2023-04-22T10:15:42;93597.66;;;39.33;10.24
70902;BME280;58548;47.210;8.618;2023-04-22T10:18:12;93599.22;;;39.48;9.94
70902;BME280;58548;47.210;8.618;2023-04-22T10:20:42;93531.22;;;39.03;9.97
70902;BME280;58548;47.210;8.618;2023-04-22T10:23:19;93493.69;;;38.82;9.79
70902;BME280;58548;47.210;8.618;2023-04-22T10:25:53;93585.59;;;39.63;10.03
70902;BME280;58548;47.210;8.618;2023-04-22T10:28:23;93589.53;;;39.80;10.15
70902;BME280;58548;47.210;8.618;2023-04-22T10:30:49;93595.41;;;40.07;9.77
70902;BME280;58548;47.210;8.618;2023-04-22T10:41:31;93576.28;;;39.93;8.52
70902;BME280;58548;47.210;8.618;2023-04-22T10:44:00;93544.22;;;39.50;10.60
70902;BME280;58548;47.210;8.618;2023-04-22T10:49:16;93592.63;;;39.71;11.46
70902;BME280;58548;47.210;8.618;2023-04-22T10:51:44;93589.13;;;39.74;11.72
70902;BME280;58548;47.210;8.618;2023-04-22T10:59:47;93522.75;;;39.56;10.46
70902;BME280;58548;47.210;8.618;2023-04-22T11:02:18;93530.19;;;39.73;9.90
70902;BME280;58548;47.210;8.618;2023-04-22T11:04:47;93550.91;;;39.92;9.42
70902;BME280;58548;47.210;8.618;2023-04-22T11:15:15;93627.84;;;40.23;10.82
70902;BME280;58548;47.210;8.618;2023-04-22T11:17:43;93561.41;;;39.61;10.91
70902;BME280;58548;47.210;8.618;2023-04-22T11:20:10;93632.09;;;39.95;10.84
70902;BME280;58548;47.210;8.618;2023-04-22T11:25:16;93606.25;;;39.49;11.32
70902;BME280;58548;47.210;8.618;2023-04-22T11:27:45;93623.47;;;39.61;11.17
70902;BME280;58548;47.210;8.618;2023-04-22T11:30:17;93637.91;;;39.58;11.46
70902;BME280;58548;47.210;8.618;2023-04-22T11:32:47;93633.56;;;39.49;11.51
70902;BME280;58548;47.210;8.618;2023-04-22T11:35:31;93609.75;;;39.39;11.54
70902;BME280;58548;47.210;8.618;2023-04-22T11:37:59;93576.47;;;39.04;11.52
70902;BME280;58548;47.210;8.618;2023-04-22T11:40:31;93645.63;;;39.38;11.81
70902;BME280;58548;47.210;8.618;2023-04-22T11:42:59;93583.34;;;38.80;11.99
70902;BME280;58548;47.210;8.618;2023-04-22T11:45:27;93640.06;;;39.12;11.83
70902;BME280;58548;47.210;8.618;2023-04-22T11:47:53;93626.31;;;38.90;11.61
70902;BME280;58548;47.210;8.618;2023-04-22T11:50:28;93634.88;;;38.89;12.09
70902;BME280;58548;47.210;8.618;2023-04-22T11:52:59;93648.06;;;38.80;11.51
70902;BME280;58548;47.210;8.618;2023-04-22T11:55:31;93646.84;;;38.73;12.00
70902;BME280;58548;47.210;8.618;2023-04-22T11:58:07;93645.66;;;38.67;11.79
70902;BME280;58548;47.210;8.618;2023-04-22T12:00:37;93644.03;;;38.55;11.91
70902;BME280;58548;47.210;8.618;2023-04-22T12:03:26;93643.22;;;38.51;12.02
70902;BME280;58548;47.210;8.618;2023-04-22T12:05:56;93566.72;;;37.81;12.20
70902;BME280;58548;47.210;8.618;2023-04-22T12:08:29;93641.09;;;38.30;12.36
70902;BME280;58548;47.210;8.618;2023-04-22T12:11:02;93631.31;;;38.25;12.61
70902;BME280;58548;47.210;8.618;2023-04-22T12:13:31;93605.91;;;38.10;12.07
70902;BME280;58548;47.210;8.618;2023-04-22T12:15:59;93576.50;;;37.89;12.83
70902;BME280;58548;47.210;8.618;2023-04-22T12:18:33;93648.50;;;38.29;12.48
70902;BME280;58548;47.210;8.618;2023-04-22T12:21:08;93650.66;;;38.06;12.51
70902;BME280;58548;47.210;8.618;2023-04-22T12:26:14;93552.94;;;36.91;13.10
70902;BME280;58548;47.210;8.618;2023-04-22T12:28:42;93608.25;;;36.99;13.17
70902;BME280;58548;47.210;8.618;2023-04-22T12:31:11;93615.34;;;36.76;12.63
70902;BME280;58548;47.210;8.618;2023-04-22T12:33:40;93631.13;;;36.67;12.58
70902;BME280;58548;47.210;8.618;2023-04-22T12:36:11;93606.50;;;36.29;13.74
70902;BME280;58548;47.210;8.618;2023-04-22T12:38:37;93544.06;;;35.59;13.91
70902;BME280;58548;47.210;8.618;2023-04-22T12:41:07;93625.66;;;35.90;13.96
70902;BME280;58548;47.210;8.618;2023-04-22T12:43:33;93527.53;;;35.02;13.91
70902;BME280;58548;47.210;8.618;2023-04-22T12:46:02;93552.00;;;34.86;14.18
70902;BME280;58548;47.210;8.618;2023-04-22T12:48:31;93619.19;;;35.12;15.21
70902;BME280;58548;47.210;8.618;2023-04-22T12:51:00;93514.19;;;34.18;15.50
70902;BME280;58548;47.210;8.618;2023-04-22T12:53:31;93604.78;;;34.53;16.04
70902;BME280;58548;47.210;8.618;2023-04-22T12:55:57;93615.47;;;34.46;15.34
70902;BME280;58548;47.210;8.618;2023-04-22T12:58:23;93559.75;;;33.80;15.95
70902;BME280;58548;47.210;8.618;2023-04-22T13:00:52;93621.69;;;34.14;15.80
70902;BME280;58548;47.210;8.618;2023-04-22T13:03:22;93618.56;;;33.96;16.34
70902;BME280;58548;47.210;8.618;2023-04-22T13:05:51;93597.47;;;33.73;16.18
70902;BME280;58548;47.210;8.618;2023-04-22T13:08:19;93624.47;;;33.86;16.44
70902;BME280;58548;47.210;8.618;2023-04-22T13:10:48;93541.00;;;33.27;16.54
70902;BME280;58548;47.210;8.618;2023-04-22T13:13:14;93631.03;;;33.85;16.95
70902;BME280;58548;47.210;8.618;2023-04-22T13:15:40;93615.13;;;33.67;16.67
70902;BME280;58548;47.210;8.618;2023-04-22T13:18:08;93624.41;;;33.98;16.79
70902;BME280;58548;47.210;8.618;2023-04-22T13:20:34;93628.44;;;34.04;16.38
70902;BME280;58548;47.210;8.618;2023-04-22T13:23:00;93622.31;;;34.07;16.15
70902;BME280;58548;47.210;8.618;2023-04-22T13:25:29;93584.81;;;33.77;15.89
70902;BME280;58548;47.210;8.618;2023-04-22T13:27:55;93617.94;;;33.87;16.26
70902;BME280;58548;47.210;8.618;2023-04-22T13:30:21;93553.50;;;33.32;16.48
70902;BME280;58548;47.210;8.618;2023-04-22T13:32:49;93586.63;;;33.41;17.18
70902;BME280;58548;47.210;8.618;2023-04-22T13:35:16;93546.22;;;33.04;15.93